createdAt,value
2019-04-14T00:01:30.528Z,26.83
2019-04-14T00:04:31.225Z,27.30
2019-04-14T00:07:03.693Z,28.93
2019-04-14T00:09:36.305Z,26.30
2019-04-14T00:12:09.017Z,28.13
2019-04-14T00:14:40.411Z,31.33
2019-04-14T00:17:11.276Z,30.13
2019-04-14T00:19:44.147Z,26.80
2019-04-14T00:22:16.203Z,32.07
2019-04-14T00:24:48.949Z,26.33
2019-04-14T00:27:21.231Z,28.63
2019-04-14T00:29:53.214Z,31.57
2019-04-14T00:32:24.833Z,28.80
2019-04-14T00:35:21.003Z,30.87
2019-04-14T00:38:17.465Z,28.60
2019-04-14T00:41:13.730Z,25.90
2019-04-14T00:44:09.991Z,30.03
2019-04-14T00:46:55.978Z,31.07
2019-04-14T00:49:28.902Z,35.80
2019-04-14T00:52:01.521Z,25.57
2019-04-14T00:54:34.638Z,26.20
2019-04-14T00:57:05.269Z,29.37
2019-04-14T00:59:38.408Z,28.80
2019-04-14T01:02:09.883Z,30.50
2019-04-14T01:04:42.669Z,24.23
2019-04-14T01:07:13.462Z,25.27
2019-04-14T01:09:44.326Z,32.47
2019-04-14T01:12:17.091Z,27.90
2019-04-14T01:14:49.474Z,26.70
2019-04-14T01:17:22.015Z,26.20
2019-04-14T01:19:55.462Z,27.13
2019-04-14T01:22:27.511Z,21.80
2019-04-14T01:24:59.995Z,27.00
2019-04-14T01:27:30.450Z,24.07
2019-04-14T01:30:04.518Z,23.00
2019-04-14T01:32:37.604Z,26.40
2019-04-14T01:35:09.635Z,25.70
2019-04-14T01:37:41.886Z,23.37
2019-04-14T01:40:12.475Z,27.30
2019-04-14T01:42:46.370Z,29.57
2019-04-14T01:45:18.647Z,31.07
2019-04-14T01:47:49.591Z,28.07
2019-04-14T01:50:23.437Z,28.10
2019-04-14T01:53:22.865Z,28.33
2019-04-14T01:56:05.651Z,25.23
2019-04-14T01:58:49.759Z,34.87
2019-04-14T02:01:32.460Z,29.70
2019-04-14T02:04:05.575Z,31.20
2019-04-14T02:06:37.604Z,29.90
2019-04-14T02:09:10.401Z,29.33
2019-04-14T02:11:40.886Z,31.40
2019-04-14T02:14:14.778Z,24.53
2019-04-14T02:16:53.579Z,30.03
2019-04-14T02:19:21.936Z,26.50
2019-04-14T02:21:54.679Z,28.63
2019-04-14T02:24:26.340Z,28.20
2019-04-14T02:26:59.121Z,30.17
2019-04-14T02:29:29.838Z,28.93
2019-04-14T02:32:43.363Z,29.10
2019-04-14T02:35:03.046Z,27.90
2019-04-14T02:37:44.860Z,30.90
2019-04-14T02:40:12.969Z,28.77
2019-04-14T02:42:48.270Z,30.00
2019-04-14T02:45:22.632Z,26.13
2019-04-14T02:50:26.332Z,25.00
2019-04-14T02:53:01.667Z,26.03
2019-04-14T02:55:31.777Z,30.20
2019-04-14T02:58:16.076Z,28.20
2019-04-14T03:00:41.436Z,27.13
2019-04-14T03:03:17.949Z,30.10
2019-04-14T03:08:23.595Z,26.10
2019-04-14T03:15:56.855Z,25.17
2019-04-14T03:18:54.333Z,25.73
2019-04-14T03:22:05.139Z,24.10
2019-04-14T03:24:39.172Z,29.90
2019-04-14T03:27:45.819Z,27.80
2019-04-14T03:33:32.509Z,23.57
2019-04-14T03:38:20.570Z,28.77
2019-04-14T03:40:45.809Z,31.53
2019-04-14T03:43:18.806Z,27.47
2019-04-14T03:45:51.998Z,28.10
2019-04-14T03:48:45.087Z,26.00
2019-04-14T03:51:00.396Z,30.83
2019-04-14T03:53:27.190Z,31.90
2019-04-14T03:56:14.909Z,30.30
2019-04-14T03:58:47.215Z,29.77
2019-04-14T04:01:19.397Z,26.60
2019-04-14T04:03:52.168Z,32.07
2019-04-14T04:06:24.567Z,31.50
2019-04-14T04:08:55.463Z,32.90
2019-04-14T04:11:26.144Z,33.00
2019-04-14T04:13:58.541Z,33.47
2019-04-14T04:16:51.390Z,36.20
2019-04-14T04:19:29.426Z,32.80
2019-04-14T04:22:19.311Z,33.73
2019-04-14T04:25:00.808Z,38.43
2019-04-14T04:27:46.175Z,39.27
2019-04-14T04:30:34.564Z,38.07
2019-04-14T04:33:30.943Z,39.90
2019-04-14T04:36:05.302Z,37.17
2019-04-14T04:38:46.382Z,35.20
2019-04-14T04:41:17.207Z,37.17
2019-04-14T04:43:49.378Z,34.43
2019-04-14T04:46:22.083Z,35.50
2019-04-14T04:49:03.364Z,39.17
2019-04-14T04:51:25.387Z,36.30
2019-04-14T04:53:57.055Z,37.63
2019-04-14T04:56:27.580Z,44.50
2019-04-14T04:59:01.068Z,41.10
2019-04-14T05:01:31.788Z,35.67
2019-04-14T05:04:04.635Z,35.93
2019-04-14T05:07:07.783Z,40.00
2019-04-14T05:10:04.697Z,39.67
2019-04-14T05:12:47.860Z,42.10
2019-04-14T05:15:40.274Z,38.90
2019-04-14T05:18:24.672Z,40.00
2019-04-14T05:20:57.437Z,45.23
2019-04-14T05:23:29.933Z,41.97
2019-04-14T05:26:01.050Z,42.97
2019-04-14T05:28:31.647Z,44.53
2019-04-14T05:31:03.337Z,41.60
2019-04-14T05:33:36.033Z,42.43
2019-04-14T05:36:06.602Z,47.03
2019-04-14T05:38:40.780Z,43.17
2019-04-14T05:41:13.786Z,42.33
2019-04-14T05:43:52.004Z,43.83
2019-04-14T05:46:20.765Z,39.03
2019-04-14T05:48:51.498Z,40.53
2019-04-14T05:51:23.319Z,40.07
2019-04-14T05:53:54.695Z,34.60
2019-04-14T05:56:25.766Z,36.60
2019-04-14T05:58:57.887Z,35.23
2019-04-14T06:01:46.527Z,35.37
2019-04-14T06:04:17.829Z,34.73
2019-04-14T06:06:48.802Z,37.17
2019-04-14T06:09:20.743Z,35.27
2019-04-14T06:11:53.816Z,39.43
2019-04-14T06:14:26.816Z,36.70
2019-04-14T06:16:57.836Z,38.00
2019-04-14T06:19:37.826Z,40.57
2019-04-14T06:22:01.894Z,33.30
2019-04-14T06:24:32.944Z,37.97
2019-04-14T06:27:03.766Z,37.93
2019-04-14T06:29:36.868Z,34.07
2019-04-14T06:32:47.153Z,32.77
2019-04-14T06:35:41.212Z,33.63
2019-04-14T06:38:22.349Z,32.47
2019-04-14T06:40:58.483Z,29.40
2019-04-14T06:43:29.972Z,33.17
2019-04-14T06:46:01.966Z,37.83
2019-04-14T06:48:33.058Z,36.30
2019-04-14T06:51:04.311Z,32.13
2019-04-14T06:53:35.912Z,38.30
2019-04-14T06:56:06.649Z,36.47
2019-04-14T06:58:37.223Z,37.20
2019-04-14T07:01:07.843Z,39.17
2019-04-14T07:03:38.374Z,32.80
2019-04-14T07:06:09.006Z,36.70
2019-04-14T07:08:39.534Z,36.67
2019-04-14T07:11:10.147Z,38.40
2019-04-14T07:13:40.719Z,33.87
2019-04-14T07:16:11.154Z,37.27
2019-04-14T07:18:42.014Z,37.80
2019-04-14T07:21:12.665Z,35.87
2019-04-14T07:23:43.174Z,38.53
2019-04-14T07:26:13.823Z,35.17
2019-04-14T07:28:56.199Z,38.70
2019-04-14T07:31:42.383Z,36.37
2019-04-14T07:34:32.185Z,38.03
2019-04-14T07:37:21.477Z,38.87
2019-04-14T07:40:07.592Z,41.83
2019-04-14T07:42:47.499Z,46.93
2019-04-14T07:45:52.064Z,43.67
2019-04-14T07:48:34.505Z,44.10
2019-04-14T07:51:20.218Z,39.57
2019-04-14T07:53:57.065Z,45.30
2019-04-14T07:56:51.244Z,52.03
2019-04-14T07:59:31.252Z,43.10
2019-04-14T08:02:22.215Z,45.97
2019-04-14T08:05:05.215Z,49.97
2019-04-14T08:07:36.599Z,57.17
2019-04-14T08:10:08.616Z,52.73
2019-04-14T08:12:39.306Z,52.40
2019-04-14T08:15:10.136Z,52.37
2019-04-14T08:17:43.454Z,51.97
2019-04-14T08:20:26.495Z,50.03
2019-04-14T08:22:47.289Z,47.00
2019-04-14T08:25:17.826Z,56.97
2019-04-14T08:27:49.669Z,51.80
2019-04-14T08:30:20.619Z,46.87
2019-04-14T08:32:53.569Z,47.70
2019-04-14T08:35:26.550Z,47.33
2019-04-14T08:37:57.955Z,48.17
2019-04-14T08:40:29.602Z,45.27
2019-04-14T08:43:35.210Z,46.70
2019-04-14T08:46:27.298Z,51.27
2019-04-14T08:49:04.846Z,46.47
2019-04-14T08:51:50.796Z,56.43
2019-04-14T08:54:29.670Z,48.10
2019-04-14T08:57:13.025Z,52.60
2019-04-14T09:00:00.242Z,43.20
2019-04-14T09:02:50.049Z,46.53
2019-04-14T09:05:30.230Z,49.60
2019-04-14T09:08:25.261Z,52.03
2019-04-14T09:10:58.675Z,49.87
2019-04-14T09:13:29.523Z,45.07
2019-04-14T09:16:00.566Z,39.10
2019-04-14T09:18:33.523Z,46.83
2019-04-14T09:21:04.736Z,49.10
2019-04-14T09:23:37.730Z,42.37
2019-04-14T09:26:08.629Z,41.90
2019-04-14T09:28:39.689Z,44.77
2019-04-14T09:31:10.776Z,43.80
2019-04-14T09:33:43.779Z,50.70
2019-04-14T09:36:14.217Z,42.73
2019-04-14T09:38:44.814Z,42.03
2019-04-14T09:41:15.246Z,45.57
2019-04-14T09:43:45.804Z,43.27
2019-04-14T09:46:16.532Z,40.90
2019-04-14T09:48:47.138Z,39.33
2019-04-14T09:51:17.962Z,38.87
2019-04-14T09:53:48.330Z,36.03
2019-04-14T09:56:18.832Z,38.90
2019-04-14T09:58:49.522Z,38.10
2019-04-14T10:01:21.647Z,36.17
2019-04-14T10:03:52.245Z,35.00
2019-04-14T10:06:24.006Z,40.63
2019-04-14T10:08:56.945Z,36.73
2019-04-14T10:11:27.922Z,36.30
2019-04-14T10:13:58.955Z,36.33
2019-04-14T10:16:31.870Z,33.10
2019-04-14T10:19:02.960Z,38.37
2019-04-14T10:21:34.031Z,31.57
2019-04-14T10:24:06.907Z,40.30
2019-04-14T10:26:38.028Z,38.57
2019-04-14T10:29:08.967Z,35.73
2019-04-14T10:31:41.967Z,35.50
2019-04-14T10:34:12.819Z,31.93
2019-04-14T10:36:43.285Z,36.40
2019-04-14T10:39:13.844Z,36.87
2019-04-14T10:41:44.273Z,37.60
2019-04-14T10:44:14.929Z,35.30
2019-04-14T10:46:45.546Z,36.37
2019-04-14T10:49:16.185Z,35.37
2019-04-14T10:51:46.849Z,37.00
2019-04-14T10:54:17.323Z,36.57
2019-04-14T10:56:47.858Z,41.50
2019-04-14T10:59:18.266Z,35.47
2019-04-14T11:01:49.069Z,35.57
2019-04-14T11:04:19.683Z,43.07
2019-04-14T11:07:09.131Z,47.47
2019-04-14T11:09:41.186Z,45.33
2019-04-14T11:12:12.258Z,44.80
2019-04-14T11:14:45.259Z,44.57
2019-04-14T11:17:17.333Z,50.03
2019-04-14T11:19:50.155Z,43.80
2019-04-14T11:22:21.247Z,43.83
2019-04-14T11:24:54.072Z,43.20
2019-04-14T11:27:24.766Z,43.50
2019-04-14T11:29:55.167Z,38.20
2019-04-14T11:32:41.425Z,43.53
2019-04-14T11:35:22.884Z,45.33
2019-04-14T11:38:15.828Z,46.30
2019-04-14T11:40:50.602Z,41.67
2019-04-14T11:43:21.428Z,43.70
2019-04-14T11:45:53.343Z,45.13
2019-04-14T11:48:24.501Z,42.90
2019-04-14T11:50:55.726Z,44.30
2019-04-14T11:53:27.391Z,43.73
2019-04-14T11:55:58.300Z,44.37
2019-04-14T11:58:29.291Z,41.80
2019-04-14T12:01:27.456Z,39.37
2019-04-14T12:04:11.062Z,42.80
2019-04-14T12:06:59.605Z,41.10
2019-04-14T12:09:43.447Z,39.13
2019-04-14T12:12:14.422Z,41.33
2019-04-14T12:14:47.548Z,48.43
2019-04-14T12:17:18.121Z,46.00
2019-04-14T12:19:49.511Z,48.77
2019-04-14T12:22:21.537Z,47.30
2019-04-14T12:24:53.388Z,47.80
2019-04-14T12:27:23.977Z,44.93
2019-04-14T12:29:54.499Z,51.60
2019-04-14T12:32:25.098Z,46.63
2019-04-14T12:34:55.767Z,45.90
2019-04-14T12:37:26.370Z,45.33
2019-04-14T12:39:57.071Z,46.63
2019-04-14T12:42:58.566Z,47.10
2019-04-14T12:45:48.460Z,46.27
2019-04-14T12:48:43.365Z,48.97
2019-04-14T12:51:21.571Z,52.40
2019-04-14T12:53:54.622Z,48.53
2019-04-14T12:56:28.507Z,52.53
2019-04-14T12:59:23.108Z,49.27
2019-04-14T13:02:13.421Z,56.80
2019-04-14T13:04:44.900Z,52.60
2019-04-14T13:07:15.536Z,45.57
2019-04-14T13:09:48.634Z,51.33
2019-04-14T13:12:19.201Z,53.70
2019-04-14T13:14:51.366Z,51.60
2019-04-14T13:17:23.802Z,50.10
2019-04-14T13:19:56.831Z,52.17
2019-04-14T13:22:33.934Z,44.93
2019-04-14T13:25:00.833Z,51.50
2019-04-14T13:27:31.783Z,54.23
2019-04-14T13:30:02.209Z,55.07
2019-04-14T13:32:36.256Z,57.60
2019-04-14T13:35:07.344Z,54.40
2019-04-14T13:37:38.979Z,59.60
2019-04-14T13:40:10.886Z,57.77
2019-04-14T13:42:41.277Z,53.67
2019-04-14T13:45:12.045Z,61.80
2019-04-14T13:47:43.085Z,60.10
2019-04-14T13:50:15.978Z,50.30
2019-04-14T13:52:47.510Z,56.03
2019-04-14T13:55:18.192Z,60.50
2019-04-14T13:57:51.235Z,58.27
2019-04-14T14:00:24.202Z,67.73
2019-04-14T14:02:57.006Z,63.17
2019-04-14T14:05:29.926Z,62.03
2019-04-14T14:08:02.104Z,58.63
2019-04-14T14:10:33.267Z,64.67
2019-04-14T14:13:17.533Z,58.80
2019-04-14T14:16:16.187Z,61.40
2019-04-14T14:18:59.408Z,66.03
2019-04-14T14:21:44.063Z,72.23
2019-04-14T14:24:42.848Z,69.03
2019-04-14T14:27:16.052Z,66.70
2019-04-14T14:29:49.040Z,64.47
2019-04-14T14:32:35.308Z,70.03
2019-04-14T14:35:07.350Z,76.37
2019-04-14T14:37:39.175Z,73.00
2019-04-14T14:40:10.347Z,76.70
2019-04-14T14:42:40.777Z,70.70
2019-04-14T14:45:42.428Z,69.27
2019-04-14T14:48:19.694Z,76.53
2019-04-14T14:51:09.174Z,67.27
2019-04-14T14:53:40.243Z,66.83
2019-04-14T14:56:13.257Z,68.50
2019-04-14T14:58:45.457Z,73.90
2019-04-14T15:01:18.062Z,69.77
2019-04-14T15:03:48.474Z,69.23
2019-04-14T15:06:20.511Z,76.20
2019-04-14T15:08:52.279Z,69.27
2019-04-14T15:11:24.189Z,74.70
2019-04-14T15:13:56.300Z,69.23
2019-04-14T15:16:27.310Z,70.60
2019-04-14T15:19:00.414Z,71.67
2019-04-14T15:21:31.384Z,74.40
2019-04-14T15:24:02.287Z,69.03
2019-04-14T15:26:35.278Z,70.97
2019-04-14T15:29:06.225Z,70.83
2019-04-14T15:31:36.957Z,64.47
2019-04-14T15:34:07.467Z,66.13
2019-04-14T15:36:38.084Z,66.73
2019-04-14T15:39:09.303Z,67.57
2019-04-14T15:41:42.465Z,69.37
2019-04-14T15:44:15.371Z,68.20
2019-04-14T15:46:46.377Z,65.47
2019-04-14T15:49:18.065Z,68.67
2019-04-14T15:51:49.500Z,70.13
2019-04-14T15:54:21.459Z,74.00
2019-04-14T15:57:19.780Z,71.30
2019-04-14T16:00:11.307Z,72.03
2019-04-14T16:03:04.289Z,80.83
2019-04-14T16:05:44.145Z,68.80
2019-04-14T16:08:20.398Z,71.93
2019-04-14T16:11:10.521Z,71.00
2019-04-14T16:13:53.757Z,68.13
2019-04-14T16:16:47.091Z,72.87
2019-04-14T16:19:37.313Z,76.30
2019-04-14T16:22:09.669Z,67.03
2019-04-14T16:24:40.607Z,76.23
2019-04-14T16:27:23.246Z,71.00
2019-04-14T16:30:15.512Z,74.57
2019-04-14T16:33:04.185Z,72.77
2019-04-14T16:35:38.241Z,71.60
2019-04-14T16:38:10.922Z,72.60
2019-04-14T16:40:41.785Z,72.53
2019-04-14T16:43:14.775Z,68.53
2019-04-14T16:45:45.641Z,73.53
2019-04-14T16:48:16.139Z,70.87
2019-04-14T16:50:46.883Z,66.17
2019-04-14T16:53:23.109Z,69.90
2019-04-14T16:56:10.296Z,70.87
2019-04-14T16:58:47.717Z,69.30
2019-04-14T17:01:23.148Z,72.63
2019-04-14T17:03:53.602Z,74.30
2019-04-14T17:06:24.792Z,67.77
2019-04-14T17:08:56.900Z,71.30
2019-04-14T17:11:27.312Z,68.63
2019-04-14T17:14:25.499Z,72.03
2019-04-14T17:17:19.624Z,66.87
2019-04-14T17:20:05.279Z,66.23
2019-04-14T17:22:54.803Z,70.27
2019-04-14T17:25:32.571Z,68.77
2019-04-14T17:28:16.500Z,61.30
2019-04-14T17:30:53.509Z,72.80
2019-04-14T17:33:37.265Z,67.37
2019-04-14T17:36:27.786Z,66.80
2019-04-14T17:39:25.059Z,77.00
2019-04-14T17:42:03.127Z,72.77
2019-04-14T17:44:53.850Z,65.70
2019-04-14T17:47:45.365Z,72.23
2019-04-14T17:50:40.986Z,70.70
2019-04-14T17:53:30.666Z,67.83
2019-04-14T17:56:26.646Z,74.00
2019-04-14T17:59:03.149Z,73.50
2019-04-14T18:01:55.118Z,64.47
2019-04-14T18:04:52.956Z,72.53
2019-04-14T18:07:32.961Z,68.60
2019-04-14T18:10:22.720Z,67.13
2019-04-14T18:13:13.639Z,75.40
2019-04-14T18:16:04.787Z,71.77
2019-04-14T18:18:57.142Z,71.73
2019-04-14T18:21:30.208Z,72.27
2019-04-14T18:24:02.983Z,67.97
2019-04-14T18:26:33.632Z,62.13
2019-04-14T18:29:21.366Z,69.53
2019-04-14T18:32:14.199Z,70.57
2019-04-14T18:35:02.557Z,73.77
2019-04-14T18:38:00.018Z,70.27
2019-04-14T18:40:43.579Z,74.13
2019-04-14T18:43:30.218Z,73.40
2019-04-14T18:46:23.276Z,76.37
2019-04-14T18:48:59.592Z,69.93
2019-04-14T18:51:38.305Z,79.17
2019-04-14T18:54:22.765Z,80.40
2019-04-14T18:57:19.045Z,70.73
2019-04-14T19:00:20.230Z,70.13
2019-04-14T19:02:52.587Z,83.43
2019-04-14T19:05:24.480Z,74.57
2019-04-14T19:07:58.828Z,69.50
2019-04-14T19:10:29.291Z,71.93
2019-04-14T19:13:17.050Z,75.33
2019-04-14T19:15:57.899Z,71.20
2019-04-14T19:18:41.698Z,76.83
2019-04-14T19:21:25.677Z,74.43
2019-04-14T19:23:56.452Z,75.43
2019-04-14T19:26:28.360Z,72.90
2019-04-14T19:29:01.450Z,75.17
2019-04-14T19:31:32.582Z,85.13
2019-04-14T19:34:03.466Z,76.57
2019-04-14T19:36:34.185Z,74.03
2019-04-14T19:39:08.824Z,76.80
2019-04-14T19:41:41.509Z,73.40
2019-04-14T19:44:13.498Z,82.07
2019-04-14T19:46:45.621Z,82.10
2019-04-14T19:49:17.594Z,78.23
2019-04-14T19:51:48.592Z,82.77
2019-04-14T19:54:18.958Z,76.03
2019-04-14T19:56:50.536Z,82.87
2019-04-14T19:59:21.710Z,81.50
2019-04-14T20:01:57.355Z,81.27
2019-04-14T20:04:28.674Z,79.20
2019-04-14T20:07:04.588Z,77.50
2019-04-14T20:09:35.599Z,73.50
2019-04-14T20:12:08.759Z,78.37
2019-04-14T20:15:20.864Z,79.40
2019-04-14T20:18:04.757Z,72.03
2019-04-14T20:21:13.551Z,76.20
2019-04-14T20:23:52.358Z,76.50
2019-04-14T20:26:36.899Z,69.90
2019-04-14T20:29:14.320Z,67.00
2019-04-14T20:31:57.276Z,68.87
2019-04-14T20:34:27.920Z,69.27
2019-04-14T20:36:59.785Z,64.60
2019-04-14T20:39:54.848Z,71.80
2019-04-14T20:42:27.887Z,67.43
2019-04-14T20:44:59.880Z,67.60
2019-04-14T20:47:51.950Z,70.13
2019-04-14T20:50:25.433Z,69.50
2019-04-14T20:52:56.744Z,63.07
2019-04-14T20:55:28.045Z,79.60
2019-04-14T20:57:58.935Z,74.50
2019-04-14T21:00:32.492Z,63.93
2019-04-14T21:03:21.458Z,68.53
2019-04-14T21:06:31.064Z,65.80
2019-04-14T21:09:27.223Z,66.63
2019-04-14T21:12:06.271Z,66.70
2019-04-14T21:15:01.272Z,66.30
2019-04-14T21:17:48.162Z,67.03
2019-04-14T21:20:36.751Z,69.93
2019-04-14T21:23:42.422Z,70.07
2019-04-14T21:26:42.177Z,68.13
2019-04-14T21:29:26.011Z,63.73
2019-04-14T21:32:13.390Z,73.83
2019-04-14T21:35:09.816Z,66.20
2019-04-14T21:38:10.091Z,61.13
2019-04-14T21:40:46.451Z,63.57
2019-04-14T21:43:30.840Z,61.20
2019-04-14T21:46:03.175Z,68.20
2019-04-14T21:48:45.613Z,65.30
2019-04-14T21:51:16.220Z,62.43
2019-04-14T21:53:48.388Z,69.43
2019-04-14T21:56:20.873Z,62.23
2019-04-14T21:59:00.310Z,64.50
2019-04-14T22:01:52.299Z,65.10
2019-04-14T22:05:13.003Z,59.53
2019-04-14T22:08:07.093Z,66.23
2019-04-14T22:10:59.400Z,77.43
2019-04-14T22:13:31.163Z,65.17
2019-04-14T22:16:12.329Z,64.73
2019-04-14T22:18:43.362Z,58.93
2019-04-14T22:21:15.421Z,62.30
2019-04-14T22:24:00.403Z,64.50
2019-04-14T22:26:26.329Z,60.63
2019-04-14T22:28:55.410Z,68.40
2019-04-14T22:31:28.323Z,62.37
2019-04-14T22:34:01.337Z,59.30
2019-04-14T22:36:32.438Z,61.87
2019-04-14T22:39:07.551Z,59.47
2019-04-14T22:41:42.252Z,57.40
2019-04-14T22:44:20.207Z,59.97
2019-04-14T22:47:04.051Z,59.50
2019-04-14T22:49:43.313Z,59.90
2019-04-14T22:52:19.411Z,61.50
2019-04-14T22:54:52.370Z,61.03
2019-04-14T22:57:25.373Z,60.23
2019-04-14T22:59:56.433Z,56.20
2019-04-14T23:02:45.849Z,53.07
2019-04-14T23:05:43.264Z,61.73
2019-04-14T23:08:21.553Z,59.73
2019-04-14T23:11:03.914Z,61.23
2019-04-14T23:13:53.129Z,62.13
2019-04-14T23:16:32.868Z,54.87
2019-04-14T23:19:11.627Z,56.43
2019-04-14T23:22:11.391Z,57.47
2019-04-14T23:24:45.924Z,55.90
2019-04-14T23:27:16.508Z,56.50
2019-04-14T23:29:48.715Z,56.73
2019-04-14T23:32:25.715Z,60.90
2019-04-14T23:34:58.639Z,55.77
2019-04-14T23:37:31.624Z,53.07
2019-04-14T23:40:03.252Z,53.40
2019-04-14T23:42:34.632Z,56.50
2019-04-14T23:45:07.828Z,55.30
2019-04-14T23:47:41.263Z,56.20
2019-04-14T23:50:27.905Z,54.47
2019-04-14T23:53:15.729Z,50.77
2019-04-14T23:55:50.263Z,53.37
2019-04-14T23:58:23.312Z,54.13
